Time;durP1;ratioP1;P1;durP2;ratioP2;P2;SDS_P1;SDS_P2;PMS_P1;PMS_P2;Temp;Humidity;BMP_temperature;BMP_pressure;BME280_temperature;BME280_humidity;BME280_pressure;Samples;Min_cycle;Max_cycle;Signal;HPM_P1;HPM_P2
2021/12/18 00:00:14;;;;;;;40.85;28.57;;;22.90;74.10;;;;;;1815736;78;21155;-78
2021/12/18 00:02:45;;;;;;;38.08;27.70;;;22.90;74.10;;;;;;1818516;78;21087;-77
2021/12/18 00:05:15;;;;;;;39.53;28.45;;;22.90;74.30;;;;;;1818830;78;21141;-78
2021/12/18 00:07:46;;;;;;;39.23;28.27;;;22.90;74.60;;;;;;1759812;81;21673;-78
2021/12/18 00:10:23;;;;;;;39.95;28.62;;;22.90;74.70;;;;;;1810830;78;21736;-77
2021/12/18 00:12:51;;;;;;;38.42;28.32;;;22.90;74.80;;;;;;1816696;78;21093;-77
2021/12/18 00:15:24;;;;;;;37.28;27.90;;;22.90;74.90;;;;;;1807287;79;21251;-77
2021/12/18 00:17:55;;;;;;;40.15;29.20;;;22.90;74.90;;;;;;1809069;78;21634;-77
2021/12/18 00:20:27;;;;;;;41.23;28.60;;;22.90;75.10;;;;;;1814972;78;21186;-78
2021/12/18 00:22:59;;;;;;;43.95;29.85;;;22.90;75.10;;;;;;1829235;78;21096;-78
2021/12/18 00:25:29;;;;;;;40.20;30.40;;;22.90;75.10;;;;;;1827483;78;21087;-78
2021/12/18 00:28:00;;;;;;;42.00;29.60;;;22.90;75.30;;;;;;1827243;78;21162;-78
2021/12/18 00:30:33;;;;;;;42.15;28.83;;;22.90;75.30;;;;;;1825879;78;21701;-78
2021/12/18 00:33:05;;;;;;;45.17;29.18;;;23.00;75.10;;;;;;1825538;77;21686;-78
2021/12/18 00:35:37;;;;;;;38.67;27.70;;;23.00;74.90;;;;;;1821854;78;21242;-70
2021/12/18 00:38:09;;;;;;;45.00;28.73;;;23.00;74.90;;;;;;1829330;78;21084;-70
2021/12/18 00:40:48;;;;;;;40.10;28.15;;;23.00;75.00;;;;;;1823739;78;21200;-73
2021/12/18 00:45:46;;;;;;;44.85;28.62;;;23.10;75.20;;;;;;1819817;77;21491;-71
2021/12/18 00:48:17;;;;;;;41.50;29.75;;;23.10;75.20;;;;;;1791039;78;21140;-71
2021/12/18 00:50:48;;;;;;;42.65;28.70;;;23.10;75.20;;;;;;1821904;78;21190;-71
2021/12/18 00:53:19;;;;;;;40.70;30.35;;;23.20;75.00;;;;;;1820461;78;21611;-71
2021/12/18 00:55:52;;;;;;;43.08;29.00;;;23.20;75.30;;;;;;1825387;78;21092;-71
2021/12/18 00:58:23;;;;;;;45.85;29.70;;;23.20;75.80;;;;;;1823983;78;22836;-71
2021/12/18 01:00:54;;;;;;;43.60;30.70;;;23.20;75.70;;;;;;1819355;78;21202;-71
2021/12/18 01:03:25;;;;;;;45.52;31.45;;;23.20;75.70;;;;;;1821824;77;21119;-72
2021/12/18 01:05:56;;;;;;;45.08;33.18;;;23.20;75.60;;;;;;1820925;77;21128;-71
2021/12/18 01:08:27;;;;;;;50.90;33.70;;;23.20;75.50;;;;;;1812476;78;21132;-70
2021/12/18 01:13:34;;;;;;;43.28;29.85;;;23.30;75.80;;;;;;1831575;78;21179;-71
2021/12/18 01:16:14;;;;;;;44.85;30.08;;;23.30;75.30;;;;;;1829792;78;21570;-71
2021/12/18 01:23:39;;;;;;;44.45;30.23;;;23.40;74.40;;;;;;1830587;78;21154;-71
2021/12/18 01:26:10;;;;;;;42.95;31.35;;;23.50;74.60;;;;;;1806858;79;21104;-73
2021/12/18 01:28:40;;;;;;;53.87;29.42;;;23.50;73.90;;;;;;1836956;78;21208;-73
2021/12/18 01:31:11;;;;;;;42.65;29.67;;;23.50;73.70;;;;;;1837512;78;21236;-71
2021/12/18 01:33:42;;;;;;;37.67;27.60;;;23.60;73.30;;;;;;1838679;78;21685;-72
2021/12/18 01:36:13;;;;;;;47.65;28.02;;;23.60;73.60;;;;;;1838376;78;21240;-71
2021/12/18 01:38:44;;;;;;;34.23;25.97;;;23.70;72.80;;;;;;1834657;77;21161;-71
2021/12/18 01:41:16;;;;;;;36.10;26.82;;;23.70;72.10;;;;;;1801143;78;21245;-71
2021/12/18 01:51:32;;;;;;;34.58;26.12;;;24.00;70.60;;;;;;1835281;78;21098;-71
2021/12/18 01:53:56;;;;;;;34.23;24.32;;;24.10;70.10;;;;;;1823799;77;21510;-70
2021/12/18 01:56:28;;;;;;;34.92;25.48;;;24.10;68.90;;;;;;1842669;77;21074;-70
2021/12/18 01:58:58;;;;;;;38.33;26.90;;;24.10;68.80;;;;;;1834908;77;21198;-71
2021/12/18 02:01:29;;;;;;;39.38;27.48;;;24.10;69.20;;;;;;1833682;77;21639;-70
2021/12/18 02:04:00;;;;;;;38.02;26.25;;;24.10;68.80;;;;;;1837218;78;21158;-71
2021/12/18 02:06:32;;;;;;;36.03;25.62;;;24.10;69.00;;;;;;1836890;77;21358;-70
2021/12/18 02:09:03;;;;;;;38.15;26.30;;;24.00;69.10;;;;;;1831969;78;21150;-70
2021/12/18 02:11:35;;;;;;;37.90;26.33;;;24.10;69.30;;;;;;1831769;78;21126;-71
2021/12/18 02:21:42;;;;;;;34.03;25.25;;;24.10;69.20;;;;;;1821610;78;21099;-70
2021/12/18 02:24:14;;;;;;;36.60;25.70;;;24.10;69.20;;;;;;1820615;78;21186;-70
2021/12/18 02:26:48;;;;;;;35.15;26.42;;;24.20;69.40;;;;;;1823831;78;21163;-71
2021/12/18 02:29:21;;;;;;;38.08;25.55;;;24.30;69.20;;;;;;1815220;78;21851;-71
2021/12/18 02:31:51;;;;;;;33.70;25.48;;;24.40;69.50;;;;;;1818241;78;21131;-72
2021/12/18 02:34:29;;;;;;;34.65;25.62;;;24.40;69.00;;;;;;1824511;77;21209;-72
2021/12/18 02:37:06;;;;;;;39.42;27.17;;;24.50;69.10;;;;;;1814622;78;21127;-73
2021/12/18 02:39:44;;;;;;;36.25;26.25;;;24.50;69.00;;;;;;1821293;77;21170;-72
2021/12/18 02:42:18;;;;;;;37.08;28.32;;;24.60;68.80;;;;;;1829764;78;21162;-71
2021/12/18 02:44:39;;;;;;;39.53;27.32;;;24.60;68.70;;;;;;1830438;78;21135;-71
2021/12/18 02:47:12;;;;;;;34.80;26.60;;;24.60;68.60;;;;;;1829154;78;21115;-72
2021/12/18 02:49:46;;;;;;;36.80;25.02;;;24.70;68.70;;;;;;1830939;78;21748;-71
2021/12/18 02:52:18;;;;;;;40.25;25.92;;;24.80;68.60;;;;;;1813960;78;21749;-71
2021/12/18 02:54:48;;;;;;;37.30;27.13;;;24.80;68.30;;;;;;1833339;78;21563;-72
2021/12/18 02:57:20;;;;;;;38.13;27.90;;;24.90;68.20;;;;;;1829593;78;21828;-72
2021/12/18 02:59:56;;;;;;;36.38;27.27;;;24.90;67.80;;;;;;1826171;78;21147;-71
2021/12/18 03:02:27;;;;;;;36.38;26.37;;;24.90;67.70;;;;;;1823258;78;21222;-71
2021/12/18 03:05:00;;;;;;;40.65;27.77;;;24.90;67.90;;;;;;1830545;78;21286;-71
2021/12/18 03:07:31;;;;;;;39.00;26.42;;;24.90;67.70;;;;;;1831924;78;21646;-71
2021/12/18 03:25:28;;;;;;;29.18;20.20;;;25.40;65.60;;;;;;1825307;77;21148;-77
2021/12/18 03:27:51;;;;;;;25.32;19.27;;;25.50;64.10;;;;;;1822281;77;21200;-78
2021/12/18 03:30:23;;;;;;;32.13;24.43;;;25.50;64.10;;;;;;1825517;77;21288;-76
2021/12/18 03:32:55;;;;;;;32.70;25.37;;;25.60;64.60;;;;;;1823574;77;21520;-77
2021/12/18 03:35:26;;;;;;;43.08;25.25;;;25.60;64.90;;;;;;1815458;78;21147;-77
2021/12/18 03:37:58;;;;;;;38.30;23.98;;;25.70;64.40;;;;;;1819284;78;21684;-77
2021/12/18 03:40:29;;;;;;;35.03;24.65;;;25.60;65.00;;;;;;1829029;78;21138;-77
2021/12/18 03:43:00;;;;;;;37.17;25.50;;;25.70;65.00;;;;;;1823400;77;21237;-78
2021/12/18 03:45:31;;;;;;;36.35;24.60;;;25.80;65.10;;;;;;1786954;79;21107;-78
2021/12/18 03:48:02;;;;;;;40.33;24.72;;;25.90;65.30;;;;;;1819699;78;21228;-83
2021/12/18 03:50:34;;;;;;;32.10;22.65;;;25.90;64.60;;;;;;1823063;77;21154;-81
2021/12/18 03:53:04;;;;;;;35.38;23.07;;;26.00;64.50;;;;;;1822939;77;21119;-79
2021/12/18 03:55:35;;;;;;;29.12;20.12;;;26.10;64.00;;;;;;1826625;77;21171;-80
2021/12/18 03:58:06;;;;;;;30.45;21.10;;;26.20;62.10;;;;;;1826535;77;21181;-79
2021/12/18 04:00:37;;;;;;;23.83;18.67;;;26.40;62.20;;;;;;1827724;77;21715;-80
2021/12/18 04:03:07;;;;;;;25.65;18.45;;;26.50;60.90;;;;;;1829703;77;21182;-81
2021/12/18 04:05:38;;;;;;;26.75;18.12;;;26.60;60.10;;;;;;1819260;77;21227;-80
2021/12/18 04:08:09;;;;;;;24.18;17.82;;;26.70;60.90;;;;;;1818960;78;21190;-80
2021/12/18 04:10:41;;;;;;;26.68;18.60;;;26.80;58.80;;;;;;1827245;78;21552;-81
2021/12/18 04:13:12;;;;;;;27.37;18.55;;;26.80;58.80;;;;;;1820905;77;21131;-81
2021/12/18 04:15:43;;;;;;;23.00;18.67;;;26.90;59.10;;;;;;1818743;77;21190;-81
2021/12/18 04:18:14;;;;;;;21.95;17.65;;;27.00;59.00;;;;;;1826169;77;21154;-80
2021/12/18 04:20:44;;;;;;;23.62;17.57;;;27.10;58.70;;;;;;1848415;77;21133;-78
2021/12/18 04:23:16;;;;;;;22.93;17.82;;;27.20;59.00;;;;;;1853122;76;21601;-80
2021/12/18 04:25:47;;;;;;;27.20;18.55;;;27.30;58.80;;;;;;1854256;76;21161;-80
2021/12/18 04:28:37;;;;;;;22.37;17.98;;;27.50;58.40;;;;;;1856425;76;21672;-80
2021/12/18 04:31:09;;;;;;;23.60;16.50;;;27.50;57.50;;;;;;1780188;79;21255;-80
2021/12/18 04:33:40;;;;;;;23.12;16.05;;;27.60;57.90;;;;;;1776704;79;21148;-80
2021/12/18 04:36:11;;;;;;;19.62;16.12;;;27.70;57.30;;;;;;1774985;79;21132;-81
2021/12/18 04:38:41;;;;;;;22.17;16.52;;;27.80;57.60;;;;;;1771256;80;21296;-80
2021/12/18 04:41:21;;;;;;;27.05;18.20;;;27.90;57.10;;;;;;1774342;79;21190;-80
2021/12/18 04:43:45;;;;;;;24.43;17.40;;;28.00;57.20;;;;;;1769946;80;21175;-80
2021/12/18 04:46:16;;;;;;;22.20;17.37;;;28.00;57.30;;;;;;1779126;79;21153;-80
2021/12/18 04:48:47;;;;;;;27.22;18.65;;;28.10;56.70;;;;;;1773849;79;21183;-79
2021/12/18 04:51:17;;;;;;;24.02;18.42;;;28.10;56.70;;;;;;1775349;79;21128;-80
2021/12/18 04:53:48;;;;;;;25.00;17.98;;;28.20;56.60;;;;;;1775104;79;21218;-79
2021/12/18 04:56:19;;;;;;;24.05;18.15;;;28.20;56.30;;;;;;1772780;79;21186;-80
2021/12/18 04:58:51;;;;;;;22.17;18.07;;;28.30;56.40;;;;;;1776947;79;21231;-81
2021/12/18 05:01:22;;;;;;;21.65;16.35;;;28.30;56.30;;;;;;1778951;79;21175;-81
2021/12/18 05:03:52;;;;;;;27.05;17.23;;;28.40;55.30;;;;;;1780643;79;21194;-81
2021/12/18 05:06:24;;;;;;;21.23;16.40;;;28.50;55.70;;;;;;1779607;79;21576;-80
2021/12/18 05:08:58;;;;;;;24.35;16.93;;;28.50;54.70;;;;;;1775151;79;21608;-82
2021/12/18 05:11:37;;;;;;;20.52;16.37;;;28.60;55.20;;;;;;1780034;79;21168;-81
2021/12/18 05:14:09;;;;;;;20.40;16.37;;;28.60;55.50;;;;;;1777333;79;21135;-82
2021/12/18 05:16:40;;;;;;;22.30;16.62;;;28.70;54.90;;;;;;1772064;80;21165;-82
2021/12/18 05:19:11;;;;;;;21.62;17.10;;;28.80;54.90;;;;;;1776448;79;21675;-82
2021/12/18 05:21:41;;;;;;;22.15;15.78;;;28.80;56.00;;;;;;1779245;79;21246;-81
2021/12/18 05:24:12;;;;;;;24.20;16.77;;;28.80;54.10;;;;;;1746332;80;21201;-81
2021/12/18 05:26:43;;;;;;;21.37;15.45;;;28.80;53.80;;;;;;1777629;79;21140;-82
2021/12/18 05:29:14;;;;;;;23.25;16.90;;;28.80;53.80;;;;;;1777043;79;21761;-85
2021/12/18 05:31:45;;;;;;;20.25;15.90;;;28.90;53.60;;;;;;1775949;79;21151;-70
2021/12/18 05:34:24;;;;;;;21.62;15.80;;;28.90;53.10;;;;;;1775488;79;21203;-71
2021/12/18 05:39:22;;;;;;;22.00;15.43;;;29.00;53.30;;;;;;1766967;79;21166;-71
2021/12/18 05:41:55;;;;;;;22.50;15.15;;;29.10;54.60;;;;;;1755259;79;21234;-70
2021/12/18 05:44:27;;;;;;;20.08;16.23;;;29.10;53.00;;;;;;1765967;79;21152;-82
2021/12/18 05:46:58;;;;;;;24.77;16.48;;;29.10;53.00;;;;;;1773998;79;21111;-81
2021/12/18 05:49:29;;;;;;;22.77;15.78;;;29.10;53.60;;;;;;1772979;79;21260;-80
2021/12/18 05:52:00;;;;;;;22.80;15.83;;;29.10;53.00;;;;;;1780080;79;21696;-81
2021/12/18 05:54:34;;;;;;;22.80;16.20;;;29.10;53.40;;;;;;1774178;79;21179;-80
2021/12/18 05:57:06;;;;;;;24.30;15.68;;;29.20;53.50;;;;;;1768973;79;21136;-81
2021/12/18 05:59:37;;;;;;;21.77;17.02;;;29.20;53.50;;;;;;1773810;79;21220;-81
2021/12/18 06:02:09;;;;;;;24.00;16.12;;;29.20;53.40;;;;;;1776507;79;21146;-81
2021/12/18 06:04:42;;;;;;;21.30;15.58;;;29.20;53.20;;;;;;1772526;79;21789;-81
2021/12/18 06:09:45;;;;;;;19.95;15.58;;;29.30;53.00;;;;;;1767445;79;21741;-80
2021/12/18 06:12:16;;;;;;;21.93;15.40;;;29.30;52.20;;;;;;1773745;80;21214;-82
2021/12/18 06:14:46;;;;;;;22.17;15.80;;;29.40;52.90;;;;;;1771502;79;21238;-81
2021/12/18 06:17:17;;;;;;;20.23;15.25;;;29.40;52.90;;;;;;1772389;79;21527;-80
2021/12/18 06:19:48;;;;;;;22.70;16.30;;;29.50;53.10;;;;;;1774904;80;21152;-81
2021/12/18 06:22:19;;;;;;;21.15;15.83;;;29.50;52.60;;;;;;1780819;79;21162;-81
2021/12/18 06:24:50;;;;;;;20.60;15.35;;;29.60;53.20;;;;;;1773341;80;21152;-81
2021/12/18 06:27:23;;;;;;;24.47;16.25;;;29.60;52.50;;;;;;1765521;80;21695;-88
2021/12/18 06:29:54;;;;;;;24.30;15.93;;;29.60;51.90;;;;;;1764366;79;21604;-87
2021/12/18 06:32:30;;;;;;;20.45;15.00;;;29.60;53.80;;;;;;1773970;79;21278;-88
2021/12/18 06:35:01;;;;;;;22.17;15.08;;;29.60;52.60;;;;;;1771723;79;21150;-88
2021/12/18 06:37:38;;;;;;;19.45;14.25;;;29.50;52.30;;;;;;1764365;81;21083;-89
2021/12/18 06:40:18;;;;;;;21.75;14.30;;;29.50;52.50;;;;;;1769716;79;21111;-82
2021/12/18 06:42:49;;;;;;;22.15;14.87;;;29.50;52.70;;;;;;1767133;79;21148;-87
2021/12/18 06:45:21;;;;;;;21.05;15.63;;;29.50;52.70;;;;;;1773426;79;21136;-78
2021/12/18 06:47:52;;;;;;;21.73;16.17;;;29.50;53.40;;;;;;1764838;79;21171;-78
2021/12/18 06:50:23;;;;;;;19.95;15.80;;;29.50;52.80;;;;;;1773042;79;21581;-80
2021/12/18 06:52:54;;;;;;;23.65;15.35;;;29.50;52.60;;;;;;1765641;79;21143;-78
2021/12/18 06:55:25;;;;;;;17.42;14.40;;;29.50;53.50;;;;;;1725458;82;21258;-78
2021/12/18 06:57:56;;;;;;;20.27;13.48;;;29.50;52.90;;;;;;1769620;79;21114;-78
2021/12/18 07:00:29;;;;;;;19.23;14.28;;;29.60;52.20;;;;;;1768825;79;21120;-78
2021/12/18 07:03:00;;;;;;;22.22;13.50;;;29.50;52.00;;;;;;1770106;79;21171;-79
2021/12/18 07:05:31;;;;;;;19.27;13.32;;;29.60;51.80;;;;;;1769854;79;21238;-78
2021/12/18 07:08:02;;;;;;;15.83;13.00;;;29.50;52.00;;;;;;1766858;80;21205;-79
2021/12/18 07:10:35;;;;;;;18.17;13.85;;;29.60;52.30;;;;;;1763363;79;21218;-78
2021/12/18 07:13:06;;;;;;;21.35;12.85;;;29.50;52.20;;;;;;1767579;80;21219;-79
2021/12/18 07:15:37;;;;;;;16.82;12.55;;;29.40;51.90;;;;;;1775451;79;21111;-78
2021/12/18 07:18:07;;;;;;;16.87;12.37;;;29.30;52.40;;;;;;1769258;80;21633;-78
2021/12/18 07:20:38;;;;;;;14.38;11.90;;;29.20;52.10;;;;;;1762187;79;21660;-79
2021/12/18 07:23:09;;;;;;;18.35;13.03;;;29.10;52.80;;;;;;1768913;81;21651;-80
2021/12/18 07:25:40;;;;;;;15.88;12.25;;;29.00;53.10;;;;;;1770294;79;21150;-80
2021/12/18 07:28:10;;;;;;;15.18;12.37;;;28.90;53.20;;;;;;1774346;79;21230;-80
2021/12/18 07:30:41;;;;;;;15.65;12.43;;;28.90;53.40;;;;;;1711413;82;21681;-80
2021/12/18 07:33:12;;;;;;;16.50;13.18;;;28.90;53.40;;;;;;1721250;82;21624;-79
2021/12/18 07:35:43;;;;;;;16.65;12.20;;;28.90;53.10;;;;;;1773449;81;21148;-78
2021/12/18 07:38:15;;;;;;;17.87;12.85;;;28.90;53.30;;;;;;1773701;81;22188;-78
2021/12/18 07:40:46;;;;;;;15.43;13.28;;;28.90;53.40;;;;;;1771788;81;21175;-78
2021/12/18 07:43:16;;;;;;;19.52;12.28;;;28.80;53.20;;;;;;1758910;80;21263;-80
2021/12/18 07:45:47;;;;;;;21.52;12.07;;;28.80;53.70;;;;;;1709854;82;21575;-80
2021/12/18 07:48:18;;;;;;;14.55;11.97;;;28.90;52.50;;;;;;1773361;81;21703;-81
2021/12/18 07:50:49;;;;;;;19.55;12.23;;;28.80;52.60;;;;;;1773338;81;21652;-80
2021/12/18 07:53:19;;;;;;;18.90;12.28;;;28.80;53.10;;;;;;1743971;82;21164;-80
2021/12/18 07:55:50;;;;;;;17.12;12.53;;;28.90;53.20;;;;;;1771649;81;21121;-81
2021/12/18 07:58:21;;;;;;;20.65;13.18;;;28.90;53.50;;;;;;1773467;80;21631;-81
2021/12/18 08:00:52;;;;;;;16.35;13.43;;;28.90;53.50;;;;;;1771400;80;21266;-82
2021/12/18 08:03:23;;;;;;;17.77;12.53;;;28.90;53.60;;;;;;1772549;80;21171;-78
2021/12/18 08:05:54;;;;;;;17.27;11.53;;;28.90;53.30;;;;;;1766907;81;21189;-81
2021/12/18 08:08:25;;;;;;;18.05;12.18;;;28.80;54.30;;;;;;1766895;81;21097;-81
2021/12/18 08:10:56;;;;;;;15.98;12.03;;;28.80;53.30;;;;;;1771481;79;21135;-78
2021/12/18 08:13:27;;;;;;;15.63;12.45;;;28.80;53.10;;;;;;1767788;80;21179;-78
2021/12/18 08:15:57;;;;;;;18.57;12.43;;;28.80;53.10;;;;;;1767706;80;21171;-79
2021/12/18 08:18:28;;;;;;;19.05;12.18;;;28.80;52.70;;;;;;1774966;80;21149;-80
2021/12/18 08:20:59;;;;;;;20.10;12.55;;;28.80;52.80;;;;;;1771913;80;21336;-80
2021/12/18 08:23:30;;;;;;;17.60;12.33;;;28.80;53.00;;;;;;1763803;80;21183;-80
2021/12/18 08:26:01;;;;;;;20.88;13.00;;;28.80;53.00;;;;;;1767928;80;21198;-79
2021/12/18 08:28:32;;;;;;;16.60;12.75;;;28.80;52.70;;;;;;1772684;80;21145;-79
2021/12/18 08:31:03;;;;;;;19.00;13.45;;;28.70;53.10;;;;;;1774878;80;21846;-78
2021/12/18 08:33:34;;;;;;;17.80;13.30;;;28.70;53.00;;;;;;1761860;80;21725;-79
2021/12/18 08:36:05;;;;;;;18.07;12.68;;;28.70;53.30;;;;;;1756420;80;21179;-79
2021/12/18 08:38:36;;;;;;;18.23;13.35;;;28.70;52.70;;;;;;1766414;80;21253;-78
2021/12/18 08:41:08;;;;;;;22.13;13.30;;;28.70;52.80;;;;;;1769221;80;21564;-79
2021/12/18 08:43:39;;;;;;;19.75;14.00;;;28.70;52.90;;;;;;1769654;80;21223;-80
2021/12/18 08:46:10;;;;;;;17.57;13.65;;;28.70;53.30;;;;;;1731414;82;21177;-78
2021/12/18 08:48:40;;;;;;;17.87;13.25;;;28.60;52.90;;;;;;1762503;80;21135;-79
2021/12/18 08:51:11;;;;;;;18.65;13.85;;;28.60;53.10;;;;;;1765063;80;21270;-79
2021/12/18 08:53:50;;;;;;;23.42;14.13;;;28.60;53.20;;;;;;1766503;80;21172;-80
2021/12/18 08:56:22;;;;;;;17.48;12.95;;;28.50;53.50;;;;;;1767325;80;21215;-80
2021/12/18 08:58:53;;;;;;;20.45;13.70;;;28.50;53.10;;;;;;1758166;80;21112;-80
2021/12/18 09:01:26;;;;;;;16.62;12.85;;;28.40;53.30;;;;;;1737383;82;21241;-80
2021/12/18 09:03:57;;;;;;;20.57;14.13;;;28.40;53.40;;;;;;1773986;81;21210;-80
2021/12/18 09:06:28;;;;;;;21.27;14.68;;;28.30;53.50;;;;;;1772874;80;21182;-81
2021/12/18 09:08:59;;;;;;;21.27;14.80;;;28.30;54.10;;;;;;1775005;80;21155;-80
2021/12/18 09:11:30;;;;;;;20.97;13.38;;;28.30;54.60;;;;;;1773871;81;21170;-81
2021/12/18 09:14:02;;;;;;;16.90;13.70;;;28.30;53.70;;;;;;1774643;80;21167;-80
2021/12/18 09:16:33;;;;;;;19.75;13.60;;;28.30;53.90;;;;;;1771118;81;21155;-80
2021/12/18 09:19:04;;;;;;;21.57;16.00;;;28.30;53.70;;;;;;1773627;81;21167;-80
2021/12/18 09:21:35;;;;;;;20.15;13.75;;;28.20;53.70;;;;;;1773752;81;21165;-81
2021/12/18 09:24:06;;;;;;;17.65;13.30;;;28.20;54.00;;;;;;1767677;80;21210;-80
2021/12/18 09:26:37;;;;;;;20.48;14.63;;;28.20;53.90;;;;;;1770733;81;21592;-80
2021/12/18 09:29:08;;;;;;;18.07;12.70;;;28.20;54.30;;;;;;1773410;80;21100;-79
2021/12/18 09:31:39;;;;;;;21.52;13.88;;;28.20;54.00;;;;;;1773187;81;21172;-82
2021/12/18 09:34:10;;;;;;;22.77;16.35;;;28.20;53.90;;;;;;1770540;80;21168;-80
2021/12/18 09:36:41;;;;;;;21.70;17.12;;;28.20;53.90;;;;;;1771612;81;21171;-81
2021/12/18 09:39:14;;;;;;;23.40;16.37;;;28.10;53.90;;;;;;1773837;80;21171;-80
2021/12/18 09:41:47;;;;;;;26.52;17.77;;;28.10;54.00;;;;;;1751346;80;21202;-79
2021/12/18 09:44:20;;;;;;;23.05;16.67;;;28.10;53.90;;;;;;1764480;81;21150;-79
2021/12/18 09:46:52;;;;;;;23.30;14.23;;;28.00;54.00;;;;;;1772235;81;21192;-80
2021/12/18 09:49:24;;;;;;;23.15;16.12;;;28.00;54.20;;;;;;1773292;80;21644;-70
2021/12/18 09:51:55;;;;;;;27.07;14.65;;;28.00;54.30;;;;;;1770171;81;21185;-71
2021/12/18 09:54:27;;;;;;;20.65;15.25;;;27.90;54.20;;;;;;1759307;80;21160;-71
2021/12/18 09:56:58;;;;;;;23.42;16.12;;;27.80;54.30;;;;;;1761722;80;21119;-71
2021/12/18 09:59:29;;;;;;;21.48;14.28;;;27.80;54.10;;;;;;1771628;81;21909;-71
2021/12/18 10:02:00;;;;;;;24.15;15.58;;;27.80;54.40;;;;;;1772214;80;21146;-72
2021/12/18 10:04:33;;;;;;;22.00;14.43;;;27.80;54.70;;;;;;1773206;81;22096;-71
2021/12/18 10:07:07;;;;;;;22.22;14.68;;;27.70;54.60;;;;;;1767070;81;21214;-71
2021/12/18 10:09:38;;;;;;;20.37;14.50;;;27.70;54.80;;;;;;1765179;80;21129;-71
2021/12/18 10:12:14;;;;;;;22.15;14.93;;;27.60;54.80;;;;;;1771661;80;21174;-71
2021/12/18 10:14:49;;;;;;;19.87;14.13;;;27.60;55.00;;;;;;1769149;80;21164;-72
2021/12/18 10:17:22;;;;;;;20.62;15.43;;;27.50;55.10;;;;;;1763007;79;21270;-71
2021/12/18 10:19:57;;;;;;;20.92;15.93;;;27.50;55.10;;;;;;1751403;80;21124;-71
2021/12/18 10:22:28;;;;;;;20.40;14.20;;;27.50;55.40;;;;;;1763044;80;21085;-71
2021/12/18 10:25:03;;;;;;;22.80;15.15;;;27.50;55.50;;;;;;1762998;80;21612;-71
2021/12/18 10:27:37;;;;;;;28.85;15.53;;;27.40;55.50;;;;;;1755856;80;21604;-72
2021/12/18 10:30:09;;;;;;;20.48;14.83;;;27.40;55.60;;;;;;1751390;80;21175;-71
2021/12/18 10:32:40;;;;;;;25.37;16.12;;;27.30;55.60;;;;;;1762999;80;21218;-70
2021/12/18 10:35:11;;;;;;;22.80;15.88;;;27.30;55.90;;;;;;1762189;80;21196;-71
2021/12/18 10:37:42;;;;;;;23.60;16.67;;;27.30;56.00;;;;;;1774925;80;21153;-71
2021/12/18 10:40:15;;;;;;;25.62;17.07;;;27.20;56.10;;;;;;1763387;79;21718;-71
2021/12/18 10:42:47;;;;;;;22.37;17.45;;;27.20;56.10;;;;;;1769667;80;21265;-72
2021/12/18 10:45:20;;;;;;;26.37;16.77;;;27.20;56.30;;;;;;1765757;80;21143;-71
2021/12/18 10:47:53;;;;;;;29.63;17.12;;;27.20;56.20;;;;;;1757896;81;21112;-70
2021/12/18 10:50:27;;;;;;;24.05;15.72;;;27.10;56.40;;;;;;1765600;80;21204;-71
2021/12/18 10:53:00;;;;;;;25.48;17.90;;;27.10;56.50;;;;;;1768394;80;21608;-71
2021/12/18 10:55:34;;;;;;;24.18;14.83;;;27.00;56.80;;;;;;1770783;80;21547;-70
2021/12/18 10:58:08;;;;;;;21.10;14.45;;;27.00;56.80;;;;;;1769334;80;21191;-72
2021/12/18 11:00:41;;;;;;;20.77;14.18;;;27.00;56.90;;;;;;1758875;80;21179;-72
2021/12/18 11:03:14;;;;;;;18.75;13.98;;;26.90;56.90;;;;;;1772217;79;21160;-70
2021/12/18 11:05:47;;;;;;;18.90;13.83;;;26.90;57.00;;;;;;1765172;80;21199;-71
2021/12/18 11:08:18;;;;;;;22.48;14.07;;;26.80;57.10;;;;;;1760857;80;21156;-69
2021/12/18 11:11:05;;;;;;;21.45;14.15;;;26.80;57.30;;;;;;1771360;81;21165;-71
2021/12/18 11:15:55;;;;;;;25.97;14.00;;;26.70;57.40;;;;;;1760047;80;21171;-70
2021/12/18 11:18:25;;;;;;;22.27;15.43;;;26.70;57.50;;;;;;1715850;82;21176;-71
2021/12/18 11:20:58;;;;;;;23.87;15.45;;;26.60;57.70;;;;;;1765159;81;21171;-72
2021/12/18 11:23:31;;;;;;;20.90;14.93;;;26.60;57.70;;;;;;1758383;81;21655;-72
2021/12/18 11:26:02;;;;;;;22.05;14.33;;;26.60;57.70;;;;;;1762685;80;21144;-73
2021/12/18 11:28:35;;;;;;;22.37;15.85;;;26.60;57.80;;;;;;1763338;80;21147;-73
2021/12/18 11:31:06;;;;;;;22.50;15.63;;;26.60;57.90;;;;;;1768910;80;21706;-72
2021/12/18 11:33:39;;;;;;;20.25;14.00;;;26.50;58.50;;;;;;1751544;79;21211;-73
2021/12/18 11:36:10;;;;;;;22.60;14.40;;;26.50;58.00;;;;;;1768938;80;21156;-72
2021/12/18 11:38:43;;;;;;;18.05;13.78;;;26.50;58.20;;;;;;1767700;80;21654;-73
2021/12/18 11:41:17;;;;;;;23.47;14.55;;;26.50;58.30;;;;;;1758242;80;21231;-73
2021/12/18 11:43:47;;;;;;;23.12;15.90;;;26.40;58.30;;;;;;1762471;81;21229;-72
2021/12/18 11:46:21;;;;;;;22.62;14.78;;;26.40;58.40;;;;;;1748182;80;21551;-72
2021/12/18 11:48:57;;;;;;;24.23;15.30;;;26.40;58.60;;;;;;1825922;74;21565;-72
2021/12/18 11:51:29;;;;;;;25.20;16.20;;;26.30;58.60;;;;;;1859657;75;21199;-71
2021/12/18 11:54:03;;;;;;;23.05;16.15;;;26.30;58.60;;;;;;1840104;77;21253;-72
2021/12/18 11:56:35;;;;;;;20.62;15.28;;;26.30;58.70;;;;;;1836594;78;21203;-70
2021/12/18 11:59:06;;;;;;;25.95;15.38;;;26.30;58.80;;;;;;1838498;78;21163;-71
2021/12/18 12:01:39;;;;;;;22.30;15.72;;;26.20;58.80;;;;;;1830941;78;21175;-71
2021/12/18 12:04:10;;;;;;;21.50;15.48;;;26.20;58.90;;;;;;1838360;78;21168;-71
2021/12/18 12:06:43;;;;;;;21.37;14.38;;;26.20;59.10;;;;;;1827845;78;21636;-72
2021/12/18 12:09:28;;;;;;;23.55;14.15;;;26.20;59.20;;;;;;1815721;78;21264;-72
2021/12/18 12:11:51;;;;;;;19.10;12.78;;;26.20;59.30;;;;;;1837070;78;21591;-71
2021/12/18 12:14:24;;;;;;;19.77;13.50;;;26.20;59.20;;;;;;1842631;78;21171;-71
2021/12/18 12:16:58;;;;;;;24.77;13.30;;;26.20;59.20;;;;;;1831892;78;21130;-74
2021/12/18 12:19:31;;;;;;;20.60;13.28;;;26.20;59.30;;;;;;1848892;75;21061;-72
2021/12/18 12:22:05;;;;;;;21.12;13.75;;;26.20;59.40;;;;;;1883158;75;21583;-71
2021/12/18 12:24:38;;;;;;;19.85;13.40;;;26.10;59.20;;;;;;1887802;75;21109;-71
2021/12/18 12:27:11;;;;;;;44.30;19.80;;;26.10;59.30;;;;;;1879473;74;21124;-70
2021/12/18 12:29:44;;;;;;;21.17;14.60;;;26.10;59.70;;;;;;1888610;75;21258;-71
2021/12/18 12:32:20;;;;;;;24.45;14.83;;;26.10;59.60;;;;;;1894608;75;21080;-73
2021/12/18 12:34:51;;;;;;;23.40;14.35;;;26.10;59.40;;;;;;1894125;75;21615;-74
2021/12/18 12:37:25;;;;;;;20.17;13.38;;;26.00;59.40;;;;;;1877575;75;21602;-75
2021/12/18 12:40:01;;;;;;;23.07;13.50;;;26.00;59.50;;;;;;1887052;75;21226;-73
2021/12/18 12:42:32;;;;;;;19.30;13.20;;;25.90;59.60;;;;;;1875938;76;21632;-72
2021/12/18 12:45:10;;;;;;;19.52;13.00;;;25.90;59.70;;;;;;1883469;75;21096;-75
2021/12/18 12:47:37;;;;;;;19.20;12.93;;;25.90;59.80;;;;;;1888550;75;21665;-74
2021/12/18 12:50:10;;;;;;;18.32;12.00;;;25.90;59.80;;;;;;1889142;75;21189;-73
2021/12/18 12:52:43;;;;;;;21.48;12.98;;;25.90;59.90;;;;;;1902962;75;21092;-74
2021/12/18 12:55:19;;;;;;;23.70;13.55;;;25.90;60.00;;;;;;1899596;74;21595;-71
2021/12/18 12:57:51;;;;;;;20.37;13.30;;;25.90;60.10;;;;;;1899826;75;21089;-77
2021/12/18 13:00:25;;;;;;;23.20;13.35;;;25.80;60.10;;;;;;1886499;75;21186;-78
2021/12/18 13:02:58;;;;;;;19.17;13.05;;;25.80;60.10;;;;;;1917660;74;21080;-77
2021/12/18 13:05:32;;;;;;;19.05;13.22;;;25.80;60.20;;;;;;1888577;74;21691;-78
2021/12/18 13:08:03;;;;;;;25.05;13.58;;;25.80;60.30;;;;;;1886452;76;21599;-78
2021/12/18 13:10:38;;;;;;;18.57;12.73;;;25.70;60.20;;;;;;1886257;76;21131;-77
2021/12/18 13:13:12;;;;;;;20.52;13.10;;;25.70;60.40;;;;;;1906501;75;21181;-78
2021/12/18 13:15:45;;;;;;;19.17;12.93;;;25.60;60.40;;;;;;1890099;73;21123;-77
2021/12/18 13:18:17;;;;;;;19.87;12.98;;;25.60;60.40;;;;;;1891231;75;21153;-77
2021/12/18 13:20:55;;;;;;;19.50;13.08;;;25.60;60.50;;;;;;1913168;75;21139;-78
2021/12/18 13:23:25;;;;;;;30.17;18.48;;;25.60;60.70;;;;;;1887243;75;21134;-77
2021/12/18 13:25:56;;;;;;;20.72;13.88;;;25.60;60.60;;;;;;1898810;75;21637;-78
2021/12/18 13:28:27;;;;;;;20.65;15.60;;;25.60;60.80;;;;;;1917702;75;21124;-78
2021/12/18 13:30:58;;;;;;;20.32;16.15;;;25.60;61.10;;;;;;1892872;75;21143;-79
2021/12/18 13:33:31;;;;;;;22.22;15.85;;;25.50;61.10;;;;;;1902285;75;21132;-78
2021/12/18 13:36:03;;;;;;;27.90;19.82;;;25.50;61.20;;;;;;1898915;75;21111;-81
2021/12/18 13:38:38;;;;;;;26.85;17.55;;;25.50;61.20;;;;;;1919646;75;21198;-84